Home > Products > Valid Products > TAF

000
FTUS45 KPUB 011444 AAB
TAFPUB
TAF AMD
KPUB 011444Z 0115/0212 VRB03KT P6SM SCT100
      TEMPO 0115/0116 5SM BR
     FM012200 10007KT P6SM VCSH SCT040 BKN060
     FM020300 VRB05KT 5SM -SN BR SCT010 OVC020=



000
FTUS45 KPUB 011444 AAB
TAFPUB
TAF AMD
KPUB 011444Z 0115/0212 VRB03KT P6SM SCT100
      TEMPO 0115/0116 5SM BR
     FM012200 10007KT P6SM VCSH SCT040 BKN060
     FM020300 VRB05KT 5SM -SN BR SCT010 OVC020=



000
FTUS45 KPUB 011344 AAA
TAFCOS
TAF AMD
KCOS 011344Z 0114/0212 VRB03KT 4SM BR SCT020 BKN200
     FM011700 10007KT P6SM SCT080 BKN200
     FM012000 12010KT P6SM VCSH SCT020 BKN050
     FM012300 17009KT 5SM -SN BR BKN015 OVC025=



000
FTUS45 KPUB 011344 AAA
TAFCOS
TAF AMD
KCOS 011344Z 0114/0212 VRB03KT 4SM BR SCT020 BKN200
     FM011700 10007KT P6SM SCT080 BKN200
     FM012000 12010KT P6SM VCSH SCT020 BKN050
     FM012300 17009KT 5SM -SN BR BKN015 OVC025=



000
FTUS45 KPUB 011123
TAFALS
TAF
KALS 011123Z 0112/0212 VRB03KT P6SM OVC007
      TEMPO 0112/0115 2SM BR OVC002
     FM011700 19009KT P6SM VCSH SCT035 BKN070=



000
FTUS45 KPUB 011123
TAFCOS
TAF
KCOS 011123Z 0112/0212 VRB03KT 4SM BR BKN009
      TEMPO 0112/0115 2SM -SN BR BKN006
     FM011700 10007KT P6SM SCT030 SCT090
     FM012000 12010KT P6SM VCSH SCT020 BKN050
     FM012300 17009KT 5SM -SN BR BKN015 OVC025=



000
FTUS45 KPUB 011123
TAFPUB
TAF
KPUB 011123Z 0112/0212 VRB03KT P6SM SCT100
     FM012200 10007KT P6SM VCSH SCT040 BKN060
     FM020300 VRB05KT 5SM -SN BR SCT010 OVC020=



000
FTUS45 KPUB 011123
TAFPUB
TAF
KPUB 011123Z 0112/0212 VRB03KT P6SM SCT100
     FM012200 10007KT P6SM VCSH SCT040 BKN060
     FM020300 VRB05KT 5SM -SN BR SCT010 OVC020=



000
FTUS45 KPUB 011123
TAFCOS
TAF
KCOS 011123Z 0112/0212 VRB03KT 4SM BR BKN009
      TEMPO 0112/0115 2SM -SN BR BKN006
     FM011700 10007KT P6SM SCT030 SCT090
     FM012000 12010KT P6SM VCSH SCT020 BKN050
     FM012300 17009KT 5SM -SN BR BKN015 OVC025=



000
FTUS45 KPUB 011123
TAFALS
TAF
KALS 011123Z 0112/0212 VRB03KT P6SM OVC007
      TEMPO 0112/0115 2SM BR OVC002
     FM011700 19009KT P6SM VCSH SCT035 BKN070=



000
FTUS45 KPUB 011123
TAFPUB
TAF
KPUB 011123Z 0112/0212 VRB03KT P6SM SCT100
     FM012200 10007KT P6SM VCSH SCT040 BKN060
     FM020300 VRB05KT 5SM -SN BR SCT010 OVC020=



000
FTUS45 KPUB 011123
TAFALS
TAF
KALS 011123Z 0112/0212 VRB03KT P6SM OVC007
      TEMPO 0112/0115 2SM BR OVC002
     FM011700 19009KT P6SM VCSH SCT035 BKN070=



000
FTUS45 KPUB 011123
TAFCOS
TAF
KCOS 011123Z 0112/0212 VRB03KT 4SM BR BKN009
      TEMPO 0112/0115 2SM -SN BR BKN006
     FM011700 10007KT P6SM SCT030 SCT090
     FM012000 12010KT P6SM VCSH SCT020 BKN050
     FM012300 17009KT 5SM -SN BR BKN015 OVC025=



000
FTUS45 KPUB 011123
TAFCOS
TAF
KCOS 011123Z 0112/0212 VRB03KT 4SM BR BKN009
      TEMPO 0112/0115 2SM -SN BR BKN006
     FM011700 10007KT P6SM SCT030 SCT090
     FM012000 12010KT P6SM VCSH SCT020 BKN050
     FM012300 17009KT 5SM -SN BR BKN015 OVC025=



000
FTUS45 KPUB 011123
TAFALS
TAF
KALS 011123Z 0112/0212 VRB03KT P6SM OVC007
      TEMPO 0112/0115 2SM BR OVC002
     FM011700 19009KT P6SM VCSH SCT035 BKN070=



000
FTUS45 KPUB 011123
TAFPUB
TAF
KPUB 011123Z 0112/0212 VRB03KT P6SM SCT100
     FM012200 10007KT P6SM VCSH SCT040 BKN060
     FM020300 VRB05KT 5SM -SN BR SCT010 OVC020=



000
FTUS45 KPUB 011111 AAC
TAFALS
TAF AMD
KALS 011111Z 0111/0206 VRB03KT P6SM OVC007
      TEMPO 0111/0115 2SM BR OVC002
     FM011700 21007KT P6SM VCSH SCT035 BKN045
     FM020200 18010KT P6SM VCSH SCT025 BKN035=



000
FTUS45 KPUB 011006 AAB
TAFPUB
TAF AMD
KPUB 011006Z 0110/0206 VRB03KT P6SM SCT100
     FM011900 09008KT P6SM VCSH SCT020 BKN040
     FM020000 11005KT P6SM VCSH SCT010 BKN020=



000
FTUS45 KPUB 011006 AAB
TAFPUB
TAF AMD
KPUB 011006Z 0110/0206 VRB03KT P6SM SCT100
     FM011900 09008KT P6SM VCSH SCT020 BKN040
     FM020000 11005KT P6SM VCSH SCT010 BKN020=



000
FTUS45 KPUB 011006 AAB
TAFPUB
TAF AMD
KPUB 011006Z 0110/0206 VRB03KT P6SM SCT100
     FM011900 09008KT P6SM VCSH SCT020 BKN040
     FM020000 11005KT P6SM VCSH SCT010 BKN020=



000
FTUS45 KPUB 011006 AAB
TAFPUB
TAF AMD
KPUB 011006Z 0110/0206 VRB03KT P6SM SCT100
     FM011900 09008KT P6SM VCSH SCT020 BKN040
     FM020000 11005KT P6SM VCSH SCT010 BKN020=



000
FTUS45 KPUB 010831 AAA
TAFCOS
TAF AMD
KCOS 010831Z 0109/0206 VRB04KT 4SM BR SCT012
      TEMPO 0109/0112 3SM -SN BR BKN012
     FM011600 04007KT P6SM SCT015 BKN050
     FM011900 11010KT P6SM VCSH SCT012 BKN030
     FM020000 16010KT 3SM -SN BKN010=



000
FTUS45 KPUB 010831 AAA
TAFCOS
TAF AMD
KCOS 010831Z 0109/0206 VRB04KT 4SM BR SCT012
      TEMPO 0109/0112 3SM -SN BR BKN012
     FM011600 04007KT P6SM SCT015 BKN050
     FM011900 11010KT P6SM VCSH SCT012 BKN030
     FM020000 16010KT 3SM -SN BKN010=



000
FTUS45 KPUB 010831 AAA
TAFCOS
TAF AMD
KCOS 010831Z 0109/0206 VRB04KT 4SM BR SCT012
      TEMPO 0109/0112 3SM -SN BR BKN012
     FM011600 04007KT P6SM SCT015 BKN050
     FM011900 11010KT P6SM VCSH SCT012 BKN030
     FM020000 16010KT 3SM -SN BKN010=



000
FTUS45 KPUB 010754 AAB
TAFALS
TAF AMD
KALS 010754Z 0108/0206 VRB05KT P6SM VCSH SCT060 BKN100
      TEMPO 0108/0110 5SM -SN BR BKN025
     FM011700 21007KT P6SM VCSH SCT035 BKN045
     FM020200 18010KT P6SM VCSH SCT025 BKN035=



000
FTUS45 KPUB 010754 AAB
TAFALS
TAF AMD
KALS 010754Z 0108/0206 VRB05KT P6SM VCSH SCT060 BKN100
      TEMPO 0108/0110 5SM -SN BR BKN025
     FM011700 21007KT P6SM VCSH SCT035 BKN045
     FM020200 18010KT P6SM VCSH SCT025 BKN035=



000
FTUS45 KPUB 010754 AAB
TAFALS
TAF AMD
KALS 010754Z 0108/0206 VRB05KT P6SM VCSH SCT060 BKN100
      TEMPO 0108/0110 5SM -SN BR BKN025
     FM011700 21007KT P6SM VCSH SCT035 BKN045
     FM020200 18010KT P6SM VCSH SCT025 BKN035=



000
FTUS45 KPUB 010754 AAB
TAFALS
TAF AMD
KALS 010754Z 0108/0206 VRB05KT P6SM VCSH SCT060 BKN100
      TEMPO 0108/0110 5SM -SN BR BKN025
     FM011700 21007KT P6SM VCSH SCT035 BKN045
     FM020200 18010KT P6SM VCSH SCT025 BKN035=



000
FTUS45 KPUB 010645 AAA
TAFALS
TAF AMD
KALS 010645Z 0107/0206 VRB05KT 1SM -SN BKN009 BKN014 OVC040
      TEMPO 0107/0110 3SM -SN
     FM011000 19006KT P6SM VCSH SCT015 BKN035
     FM011700 21007KT P6SM VCSH SCT035 BKN045
     FM020200 18010KT P6SM VCSH SCT025 BKN035=



000
FTUS45 KPUB 010645 AAA
TAFALS
TAF AMD
KALS 010645Z 0107/0206 VRB05KT 1SM -SN BKN009 BKN014 OVC040
      TEMPO 0107/0110 3SM -SN
     FM011000 19006KT P6SM VCSH SCT015 BKN035
     FM011700 21007KT P6SM VCSH SCT035 BKN045
     FM020200 18010KT P6SM VCSH SCT025 BKN035=



000
FTUS45 KPUB 010645 AAA
TAFALS
TAF AMD
KALS 010645Z 0107/0206 VRB05KT 1SM -SN BKN009 BKN014 OVC040
      TEMPO 0107/0110 3SM -SN
     FM011000 19006KT P6SM VCSH SCT015 BKN035
     FM011700 21007KT P6SM VCSH SCT035 BKN045
     FM020200 18010KT P6SM VCSH SCT025 BKN035=



000
FTUS45 KPUB 010645 AAA
TAFALS
TAF AMD
KALS 010645Z 0107/0206 VRB05KT 1SM -SN BKN009 BKN014 OVC040
      TEMPO 0107/0110 3SM -SN
     FM011000 19006KT P6SM VCSH SCT015 BKN035
     FM011700 21007KT P6SM VCSH SCT035 BKN045
     FM020200 18010KT P6SM VCSH SCT025 BKN035=



000
FTUS45 KPUB 010535
TAFCOS
TAF
KCOS 010535Z 0106/0206 VRB05KT 4SM -SN BR OVC011
     FM010900 VRB05KT 4SM BR FEW005 BKN010
     FM011600 04007KT P6SM SCT015 BKN050
     FM011900 11010KT P6SM VCSH SCT012 BKN030
     FM020000 16010KT 3SM -SN BKN010=



000
FTUS45 KPUB 010535
TAFPUB
TAF
KPUB 010535Z 0106/0206 VRB03KT P6SM VCSH SCT020 BKN040
     FM011000 VRB03KT 4SM BR FEW010 SCT020 BKN040
     FM011600 05006KT P6SM SCT025 BKN050
     FM011900 09008KT P6SM VCSH SCT020 BKN040
     FM020000 11005KT P6SM VCSH SCT010 BKN020=



000
FTUS45 KPUB 010535
TAFCOS
TAF
KCOS 010535Z 0106/0206 VRB05KT 4SM -SN BR OVC011
     FM010900 VRB05KT 4SM BR FEW005 BKN010
     FM011600 04007KT P6SM SCT015 BKN050
     FM011900 11010KT P6SM VCSH SCT012 BKN030
     FM020000 16010KT 3SM -SN BKN010=



000
FTUS45 KPUB 010535
TAFCOS
TAF
KCOS 010535Z 0106/0206 VRB05KT 4SM -SN BR OVC011
     FM010900 VRB05KT 4SM BR FEW005 BKN010
     FM011600 04007KT P6SM SCT015 BKN050
     FM011900 11010KT P6SM VCSH SCT012 BKN030
     FM020000 16010KT 3SM -SN BKN010=



000
FTUS45 KPUB 010535
TAFPUB
TAF
KPUB 010535Z 0106/0206 VRB03KT P6SM VCSH SCT020 BKN040
     FM011000 VRB03KT 4SM BR FEW010 SCT020 BKN040
     FM011600 05006KT P6SM SCT025 BKN050
     FM011900 09008KT P6SM VCSH SCT020 BKN040
     FM020000 11005KT P6SM VCSH SCT010 BKN020=



000
FTUS45 KPUB 010535
TAFPUB
TAF
KPUB 010535Z 0106/0206 VRB03KT P6SM VCSH SCT020 BKN040
     FM011000 VRB03KT 4SM BR FEW010 SCT020 BKN040
     FM011600 05006KT P6SM SCT025 BKN050
     FM011900 09008KT P6SM VCSH SCT020 BKN040
     FM020000 11005KT P6SM VCSH SCT010 BKN020=



000
FTUS45 KPUB 010535
TAFALS
TAF
KALS 010535Z 0106/0206 19007KT P6SM VCSH BKN045 BKN060 OVC070
     FM011000 19006KT P6SM VCSH SCT015 BKN035
     FM011700 21007KT P6SM VCSH SCT035 BKN045
     FM020200 18010KT P6SM VCSH SCT025 BKN035=



000
FTUS45 KPUB 010535
TAFALS
TAF
KALS 010535Z 0106/0206 19007KT P6SM VCSH BKN045 BKN060 OVC070
     FM011000 19006KT P6SM VCSH SCT015 BKN035
     FM011700 21007KT P6SM VCSH SCT035 BKN045
     FM020200 18010KT P6SM VCSH SCT025 BKN035=



000
FTUS45 KPUB 010535
TAFALS
TAF
KALS 010535Z 0106/0206 19007KT P6SM VCSH BKN045 BKN060 OVC070
     FM011000 19006KT P6SM VCSH SCT015 BKN035
     FM011700 21007KT P6SM VCSH SCT035 BKN045
     FM020200 18010KT P6SM VCSH SCT025 BKN035=



000
FTUS45 KPUB 010535
TAFCOS
TAF
KCOS 010535Z 0106/0206 VRB05KT 4SM -SN BR OVC011
     FM010900 VRB05KT 4SM BR FEW005 BKN010
     FM011600 04007KT P6SM SCT015 BKN050
     FM011900 11010KT P6SM VCSH SCT012 BKN030
     FM020000 16010KT 3SM -SN BKN010=



000
FTUS45 KPUB 010535
TAFPUB
TAF
KPUB 010535Z 0106/0206 VRB03KT P6SM VCSH SCT020 BKN040
     FM011000 VRB03KT 4SM BR FEW010 SCT020 BKN040
     FM011600 05006KT P6SM SCT025 BKN050
     FM011900 09008KT P6SM VCSH SCT020 BKN040
     FM020000 11005KT P6SM VCSH SCT010 BKN020=



000
FTUS45 KPUB 010535
TAFALS
TAF
KALS 010535Z 0106/0206 19007KT P6SM VCSH BKN045 BKN060 OVC070
     FM011000 19006KT P6SM VCSH SCT015 BKN035
     FM011700 21007KT P6SM VCSH SCT035 BKN045
     FM020200 18010KT P6SM VCSH SCT025 BKN035=



000
FTUS45 KPUB 010217 AAB
TAFALS
TAF AMD
KALS 010217Z 0102/0124 21006KT P6SM VCSH SCT010 BKN035 BKN070
      TEMPO 0102/0104 2SM -SN BR BKN010
     FM010400 20008KT P6SM VCSH SCT020 BKN070
     FM011000 19006KT 1SM BR VCSH BKN008
     FM011700 21007KT 3SM -SN BR SCT012 BKN020=



000
FTUS45 KPUB 010217 AAB
TAFALS
TAF AMD
KALS 010217Z 0102/0124 21006KT P6SM VCSH SCT010 BKN035 BKN070
      TEMPO 0102/0104 2SM -SN BR BKN010
     FM010400 20008KT P6SM VCSH SCT020 BKN070
     FM011000 19006KT 1SM BR VCSH BKN008
     FM011700 21007KT 3SM -SN BR SCT012 BKN020=



000
FTUS45 KPUB 010215 AAA
TAFPUB
TAF AMD
KPUB 010215Z 0102/0124 14004KT P6SM VCSH OVC020
     FM011000 VRB04KT 4SM BR FEW010 SCT030 SCT120
     FM011600 04007KT P6SM SCT018 BKN050
     FM011900 09008KT 5SM BR VCSH SCT012 BKN030=



000
FTUS45 KPUB 010215 AAA
TAFPUB
TAF AMD
KPUB 010215Z 0102/0124 14004KT P6SM VCSH OVC020
     FM011000 VRB04KT 4SM BR FEW010 SCT030 SCT120
     FM011600 04007KT P6SM SCT018 BKN050
     FM011900 09008KT 5SM BR VCSH SCT012 BKN030=



000
FTUS45 KPUB 010044 AAA
TAFALS
TAF AMD
KALS 010044Z 0101/0124 19008KT P6SM BKN010 BKN015 OVC045
      TEMPO 0101/0104 1 1/2SM -SN BR BKN010
     FM010400 20008KT P6SM VCSH SCT020 BKN070
     FM011000 19006KT 1SM BR VCSH BKN008
     FM011700 21007KT 3SM -SN BR SCT012 BKN020=



000
FTUS45 KPUB 010044 AAA
TAFALS
TAF AMD
KALS 010044Z 0101/0124 19008KT P6SM BKN010 BKN015 OVC045
      TEMPO 0101/0104 1 1/2SM -SN BR BKN010
     FM010400 20008KT P6SM VCSH SCT020 BKN070
     FM011000 19006KT 1SM BR VCSH BKN008
     FM011700 21007KT 3SM -SN BR SCT012 BKN020=



000
FTUS45 KPUB 282327
TAFPUB
TAF
KPUB 282327Z 0100/0124 12006KT P6SM VCSH BKN025
      TEMPO 0101/0102 5SM -SN SCT012 BKN025
     FM010200 VRB06KT 5SM -SN BR BKN025
     FM011000 VRB04KT 4SM BR FEW010 SCT030 SCT120
     FM011600 04007KT P6SM SCT018 BKN050
     FM011900 09008KT 5SM BR VCSH SCT012 BKN030=



000
FTUS45 KPUB 282327
TAFALS
TAF
KALS 282327Z 0100/0124 18005KT 4SM -SN BR SCT018 BKN030
      TEMPO 0100/0103 1 1/2SM -SN BR BKN018
     FM010400 20008KT P6SM VCSH SCT020 BKN070
     FM011000 19006KT 1SM BR VCSH BKN008
     FM011700 21007KT 3SM -SN BR SCT012 BKN020=



000
FTUS45 KPUB 282327
TAFCOS
TAF
KCOS 282327Z 0100/0124 14007KT P6SM VCSH FEW060 BKN250
      TEMPO 0100/0102 5SM BR FEW012 SCT060 BKN150
     FM010200 13010KT 3SM -SN BR BKN010 OVC025
     FM010900 VRB06KT 4SM BR FEW005 SCT025 SCT100
     FM011600 01007KT P6SM SCT018 BKN050
     FM011900 04008KT 5SM BR VCSH SCT012 BKN030=



000
FTUS45 KPUB 282327
TAFALS
TAF
KALS 282327Z 0100/0124 18005KT 4SM -SN BR SCT018 BKN030
      TEMPO 0100/0103 1 1/2SM -SN BR BKN018
     FM010400 20008KT P6SM VCSH SCT020 BKN070
     FM011000 19006KT 1SM BR VCSH BKN008
     FM011700 21007KT 3SM -SN BR SCT012 BKN020=



000
FTUS45 KPUB 282327
TAFCOS
TAF
KCOS 282327Z 0100/0124 14007KT P6SM VCSH FEW060 BKN250
      TEMPO 0100/0102 5SM BR FEW012 SCT060 BKN150
     FM010200 13010KT 3SM -SN BR BKN010 OVC025
     FM010900 VRB06KT 4SM BR FEW005 SCT025 SCT100
     FM011600 01007KT P6SM SCT018 BKN050
     FM011900 04008KT 5SM BR VCSH SCT012 BKN030=



000
FTUS45 KPUB 282327
TAFPUB
TAF
KPUB 282327Z 0100/0124 12006KT P6SM VCSH BKN025
      TEMPO 0101/0102 5SM -SN SCT012 BKN025
     FM010200 VRB06KT 5SM -SN BR BKN025
     FM011000 VRB04KT 4SM BR FEW010 SCT030 SCT120
     FM011600 04007KT P6SM SCT018 BKN050
     FM011900 09008KT 5SM BR VCSH SCT012 BKN030=



000
FTUS45 KPUB 282327
TAFPUB
TAF
KPUB 282327Z 0100/0124 12006KT P6SM VCSH BKN025
      TEMPO 0101/0102 5SM -SN SCT012 BKN025
     FM010200 VRB06KT 5SM -SN BR BKN025
     FM011000 VRB04KT 4SM BR FEW010 SCT030 SCT120
     FM011600 04007KT P6SM SCT018 BKN050
     FM011900 09008KT 5SM BR VCSH SCT012 BKN030=



000
FTUS45 KPUB 282327
TAFCOS
TAF
KCOS 282327Z 0100/0124 14007KT P6SM VCSH FEW060 BKN250
      TEMPO 0100/0102 5SM BR FEW012 SCT060 BKN150
     FM010200 13010KT 3SM -SN BR BKN010 OVC025
     FM010900 VRB06KT 4SM BR FEW005 SCT025 SCT100
     FM011600 01007KT P6SM SCT018 BKN050
     FM011900 04008KT 5SM BR VCSH SCT012 BKN030=



000
FTUS45 KPUB 282327
TAFALS
TAF
KALS 282327Z 0100/0124 18005KT 4SM -SN BR SCT018 BKN030
      TEMPO 0100/0103 1 1/2SM -SN BR BKN018
     FM010400 20008KT P6SM VCSH SCT020 BKN070
     FM011000 19006KT 1SM BR VCSH BKN008
     FM011700 21007KT 3SM -SN BR SCT012 BKN020=



000
FTUS45 KPUB 282327
TAFCOS
TAF
KCOS 282327Z 0100/0124 14007KT P6SM VCSH FEW060 BKN250
      TEMPO 0100/0102 5SM BR FEW012 SCT060 BKN150
     FM010200 13010KT 3SM -SN BR BKN010 OVC025
     FM010900 VRB06KT 4SM BR FEW005 SCT025 SCT100
     FM011600 01007KT P6SM SCT018 BKN050
     FM011900 04008KT 5SM BR VCSH SCT012 BKN030=



000
FTUS45 KPUB 282327
TAFPUB
TAF
KPUB 282327Z 0100/0124 12006KT P6SM VCSH BKN025
      TEMPO 0101/0102 5SM -SN SCT012 BKN025
     FM010200 VRB06KT 5SM -SN BR BKN025
     FM011000 VRB04KT 4SM BR FEW010 SCT030 SCT120
     FM011600 04007KT P6SM SCT018 BKN050
     FM011900 09008KT 5SM BR VCSH SCT012 BKN030=



000
FTUS45 KPUB 282327
TAFALS
TAF
KALS 282327Z 0100/0124 18005KT 4SM -SN BR SCT018 BKN030
      TEMPO 0100/0103 1 1/2SM -SN BR BKN018
     FM010400 20008KT P6SM VCSH SCT020 BKN070
     FM011000 19006KT 1SM BR VCSH BKN008
     FM011700 21007KT 3SM -SN BR SCT012 BKN020=



000
FTUS45 KPUB 282058 AAA
TAFALS
TAF AMD
KALS 282058Z 2821/0118 18005KT 4SM -SN BR SCT020 OVC040
      TEMPO 2821/2824 1 1/2SM -SN BR BKN020
     FM010300 20008KT P6SM VCSH SCT020 BKN070
     FM011000 19006KT 1SM BR VCSH BKN008=



000
FTUS45 KPUB 281739
TAFPUB
TAF
KPUB 281739Z 2818/0118 VRB05KT P6SM SCT120
      TEMPO 2821/2823 SCT030 BKN120
     FM282300 09007KT 4SM -SN BR SCT018 OVC030
     FM010200 VRB06KT 6SM -SN BR BKN030
     FM011000 VRB04KT P6SM FEW010 SCT030 SCT120=



000
FTUS45 KPUB 281739
TAFALS
TAF
KALS 281739Z 2818/0118 17007KT 3SM -SN BR SCT012 OVC020
      TEMPO 2818/2821 1SM -SN BR BKN012
     FM010300 20008KT P6SM VCSH SCT020 BKN070
     FM011000 19006KT 1SM BR VCSH BKN008=



000
FTUS45 KPUB 281739
TAFCOS
TAF
KCOS 281739Z 2818/0118 13007KT P6SM VCSH FEW080 BKN250
      TEMPO 2821/2823 SCT030 BKN080
     FM282300 13010KT 3SM -SN BR BKN010 OVC025
     FM010900 VRB06KT 4SM BR FEW005 SCT025 SCT100=



000
FTUS45 KPUB 281739
TAFCOS
TAF
KCOS 281739Z 2818/0118 13007KT P6SM VCSH FEW080 BKN250
      TEMPO 2821/2823 SCT030 BKN080
     FM282300 13010KT 3SM -SN BR BKN010 OVC025
     FM010900 VRB06KT 4SM BR FEW005 SCT025 SCT100=



000
FTUS45 KPUB 281739
TAFPUB
TAF
KPUB 281739Z 2818/0118 VRB05KT P6SM SCT120
      TEMPO 2821/2823 SCT030 BKN120
     FM282300 09007KT 4SM -SN BR SCT018 OVC030
     FM010200 VRB06KT 6SM -SN BR BKN030
     FM011000 VRB04KT P6SM FEW010 SCT030 SCT120=



000
FTUS45 KPUB 281739
TAFALS
TAF
KALS 281739Z 2818/0118 17007KT 3SM -SN BR SCT012 OVC020
      TEMPO 2818/2821 1SM -SN BR BKN012
     FM010300 20008KT P6SM VCSH SCT020 BKN070
     FM011000 19006KT 1SM BR VCSH BKN008=



000
FTUS45 KPUB 281429 AAA
TAFALS
TAF AMD
KALS 281429Z 2814/0112 18010KT P6SM OVC015
      TEMPO 2814/2818 3SM -SN BR SCT010 BKN015
     FM282100 21013KT 2SM -SN BR BKN010 OVC020
     FM010200 20009KT P6SM VCSH SCT020 BKN070=



000
FTUS45 KPUB 281429 AAA
TAFALS
TAF AMD
KALS 281429Z 2814/0112 18010KT P6SM OVC015
      TEMPO 2814/2818 3SM -SN BR SCT010 BKN015
     FM282100 21013KT 2SM -SN BR BKN010 OVC020
     FM010200 20009KT P6SM VCSH SCT020 BKN070=



000
FTUS45 KPUB 281427 AAA
TAFCOS
TAF AMD
KCOS 281427Z 2814/0112 VRB06KT P6SM FEW005 SCT080 SCT180
      TEMPO 2814/2815 5SM BR BKN005
     FM281700 13008KT 6SM -SHSN BR BKN020 OVC030
     FM282100 15011KT 1SM -SN BR BKN010 OVC025
     FM010900 VRB06KT P6SM FEW005 SCT025 SCT100=



000
FTUS45 KPUB 281141
TAFPUB
TAF
KPUB 281141Z 2812/0112 VRB05KT P6SM SCT030 BKN070
     FM282000 09008KT 4SM -SN BR SCT020 OVC030
     FM010200 VRB06KT 6SM -SHSN BR BKN030
     FM011000 VRB04KT P6SM FEW010 SCT030 SCT120=



000
FTUS45 KPUB 281141
TAFCOS
TAF
KCOS 281141Z 2812/0112 VRB06KT P6SM FEW005 SCT025
      TEMPO 2812/2815 4SM BR BKN005
     FM281700 13008KT 6SM -SHSN BR BKN020 OVC030
     FM282100 15011KT 1SM -SN BR BKN010 OVC025
     FM010900 VRB06KT P6SM FEW005 SCT025 SCT100=



000
FTUS45 KPUB 281141
TAFPUB
TAF
KPUB 281141Z 2812/0112 VRB05KT P6SM SCT030 BKN070
     FM282000 09008KT 4SM -SN BR SCT020 OVC030
     FM010200 VRB06KT 6SM -SHSN BR BKN030
     FM011000 VRB04KT P6SM FEW010 SCT030 SCT120=



000
FTUS45 KPUB 281141
TAFCOS
TAF
KCOS 281141Z 2812/0112 VRB06KT P6SM FEW005 SCT025
      TEMPO 2812/2815 4SM BR BKN005
     FM281700 13008KT 6SM -SHSN BR BKN020 OVC030
     FM282100 15011KT 1SM -SN BR BKN010 OVC025
     FM010900 VRB06KT P6SM FEW005 SCT025 SCT100=



000
FTUS45 KPUB 281141
TAFALS
TAF
KALS 281141Z 2812/0112 VRB06KT P6SM VCSH FEW010 OVC015
     FM281400 18010KT 3SM -SN BR SCT020 BKN030
     FM282100 21013KT 2SM -SN BR BKN010 OVC020
     FM010200 20009KT P6SM VCSH SCT020 BKN070=



000
FTUS45 KPUB 280520
TAFALS
TAF
KALS 280520Z 2806/0106 18008KT P6SM BKN070
     FM280900 18006KT P6SM VCSH SCT020 BKN060
     FM281400 18007KT 3SM -SN BR SCT020 BKN030
     FM282100 21015KT 2SM -SN BR BKN010 OVC020
     FM010200 19010KT P6SM VCSH SCT020 BKN070=



000
FTUS45 KPUB 280520
TAFCOS
TAF
KCOS 280520Z 2806/0106 13008KT 2SM -SN BR OVC015
     FM280800 04006KT 6SM BR VCSH SCT020 BKN030
     FM281000 VRB06KT P6SM SCT025 BKN040
     FM281700 13008KT 6SM -SHSN BR BKN020 OVC030
     FM282100 17013KT 1SM -SN BR BKN010 OVC025=



000
FTUS45 KPUB 280520
TAFCOS
TAF
KCOS 280520Z 2806/0106 13008KT 2SM -SN BR OVC015
     FM280800 04006KT 6SM BR VCSH SCT020 BKN030
     FM281000 VRB06KT P6SM SCT025 BKN040
     FM281700 13008KT 6SM -SHSN BR BKN020 OVC030
     FM282100 17013KT 1SM -SN BR BKN010 OVC025=



000
FTUS45 KPUB 280520
TAFALS
TAF
KALS 280520Z 2806/0106 18008KT P6SM BKN070
     FM280900 18006KT P6SM VCSH SCT020 BKN060
     FM281400 18007KT 3SM -SN BR SCT020 BKN030
     FM282100 21015KT 2SM -SN BR BKN010 OVC020
     FM010200 19010KT P6SM VCSH SCT020 BKN070=



000
FTUS45 KPUB 280520
TAFCOS
TAF
KCOS 280520Z 2806/0106 13008KT 2SM -SN BR OVC015
     FM280800 04006KT 6SM BR VCSH SCT020 BKN030
     FM281000 VRB06KT P6SM SCT025 BKN040
     FM281700 13008KT 6SM -SHSN BR BKN020 OVC030
     FM282100 17013KT 1SM -SN BR BKN010 OVC025=



000
FTUS45 KPUB 280520
TAFALS
TAF
KALS 280520Z 2806/0106 18008KT P6SM BKN070
     FM280900 18006KT P6SM VCSH SCT020 BKN060
     FM281400 18007KT 3SM -SN BR SCT020 BKN030
     FM282100 21015KT 2SM -SN BR BKN010 OVC020
     FM010200 19010KT P6SM VCSH SCT020 BKN070=



000
FTUS45 KPUB 280520
TAFALS
TAF
KALS 280520Z 2806/0106 18008KT P6SM BKN070
     FM280900 18006KT P6SM VCSH SCT020 BKN060
     FM281400 18007KT 3SM -SN BR SCT020 BKN030
     FM282100 21015KT 2SM -SN BR BKN010 OVC020
     FM010200 19010KT P6SM VCSH SCT020 BKN070=



000
FTUS45 KPUB 280520
TAFPUB
TAF
KPUB 280520Z 2806/0106 08010KT 5SM -SHSN BR OVC030
     FM280800 VRB04KT P6SM VCSH FEW020 BKN040
     FM281200 VRB04KT P6SM SCT030 BKN070
     FM282000 09008KT 4SM -SN BR SCT020 OVC030
     FM010200 10007KT 6SM -SHSN BR BKN030=



000
FTUS45 KPUB 280520
TAFPUB
TAF
KPUB 280520Z 2806/0106 08010KT 5SM -SHSN BR OVC030
     FM280800 VRB04KT P6SM VCSH FEW020 BKN040
     FM281200 VRB04KT P6SM SCT030 BKN070
     FM282000 09008KT 4SM -SN BR SCT020 OVC030
     FM010200 10007KT 6SM -SHSN BR BKN030=



000
FTUS45 KPUB 280520
TAFCOS
TAF
KCOS 280520Z 2806/0106 13008KT 2SM -SN BR OVC015
     FM280800 04006KT 6SM BR VCSH SCT020 BKN030
     FM281000 VRB06KT P6SM SCT025 BKN040
     FM281700 13008KT 6SM -SHSN BR BKN020 OVC030
     FM282100 17013KT 1SM -SN BR BKN010 OVC025=



000
FTUS45 KPUB 280520
TAFPUB
TAF
KPUB 280520Z 2806/0106 08010KT 5SM -SHSN BR OVC030
     FM280800 VRB04KT P6SM VCSH FEW020 BKN040
     FM281200 VRB04KT P6SM SCT030 BKN070
     FM282000 09008KT 4SM -SN BR SCT020 OVC030
     FM010200 10007KT 6SM -SHSN BR BKN030=



000
FTUS45 KPUB 280520
TAFPUB
TAF
KPUB 280520Z 2806/0106 08010KT 5SM -SHSN BR OVC030
     FM280800 VRB04KT P6SM VCSH FEW020 BKN040
     FM281200 VRB04KT P6SM SCT030 BKN070
     FM282000 09008KT 4SM -SN BR SCT020 OVC030
     FM010200 10007KT 6SM -SHSN BR BKN030=



000
FTUS45 KPUB 280428 AAB
TAFCOS
TAF AMD
KCOS 280428Z 2804/2824 12008KT 2SM -SN BR OVC020
     FM280600 12006KT 4SM -SN BR BKN020 OVC025
     FM280800 04006KT P6SM VCSH SCT020 BKN040
     FM281700 13008KT 4SM -SN BR BKN020 OVC040
     FM282200 17013KT 1SM -SN BR BKN010 OVC025=



000
FTUS45 KPUB 280428 AAB
TAFCOS
TAF AMD
KCOS 280428Z 2804/2824 12008KT 2SM -SN BR OVC020
     FM280600 12006KT 4SM -SN BR BKN020 OVC025
     FM280800 04006KT P6SM VCSH SCT020 BKN040
     FM281700 13008KT 4SM -SN BR BKN020 OVC040
     FM282200 17013KT 1SM -SN BR BKN010 OVC025=



000
FTUS45 KPUB 280428 AAB
TAFCOS
TAF AMD
KCOS 280428Z 2804/2824 12008KT 2SM -SN BR OVC020
     FM280600 12006KT 4SM -SN BR BKN020 OVC025
     FM280800 04006KT P6SM VCSH SCT020 BKN040
     FM281700 13008KT 4SM -SN BR BKN020 OVC040
     FM282200 17013KT 1SM -SN BR BKN010 OVC025=



000
FTUS45 KPUB 280428 AAB
TAFCOS
TAF AMD
KCOS 280428Z 2804/2824 12008KT 2SM -SN BR OVC020
     FM280600 12006KT 4SM -SN BR BKN020 OVC025
     FM280800 04006KT P6SM VCSH SCT020 BKN040
     FM281700 13008KT 4SM -SN BR BKN020 OVC040
     FM282200 17013KT 1SM -SN BR BKN010 OVC025=



000
FTUS45 KPUB 280231 AAA
TAFCOS
TAF AMD
KCOS 280231Z 2803/2824 12008KT 2SM -SN BR SCT009 BKN012
     FM280400 12006KT 4SM -SN BR BKN020 OVC025
     FM280800 04006KT P6SM VCSH SCT020 BKN040
     FM281700 13008KT 4SM -SN BR BKN020 OVC040
     FM282200 17013KT 1SM -SN BR BKN010 OVC025=



000
FTUS45 KPUB 280231 AAA
TAFCOS
TAF AMD
KCOS 280231Z 2803/2824 12008KT 2SM -SN BR SCT009 BKN012
     FM280400 12006KT 4SM -SN BR BKN020 OVC025
     FM280800 04006KT P6SM VCSH SCT020 BKN040
     FM281700 13008KT 4SM -SN BR BKN020 OVC040
     FM282200 17013KT 1SM -SN BR BKN010 OVC025=



000
FTUS45 KPUB 280228 AAB
TAFPUB
TAF AMD
KPUB 280228Z 2802/2824 08010KT 4SM -SHSN BR BKN025
     FM280400 08010KT 5SM -SHSN BR SCT025 BKN030
     FM280600 VRB04KT P6SM VCSH FEW020 BKN060
     FM282000 12010KT 3SM -SN BR SCT020 OVC040=



000
FTUS45 KPUB 280228 AAB
TAFPUB
TAF AMD
KPUB 280228Z 2802/2824 08010KT 4SM -SHSN BR BKN025
     FM280400 08010KT 5SM -SHSN BR SCT025 BKN030
     FM280600 VRB04KT P6SM VCSH FEW020 BKN060
     FM282000 12010KT 3SM -SN BR SCT020 OVC040=



000
FTUS45 KPUB 280200 AAA
TAFPUB
TAF AMD
KPUB 280200Z 2802/2824 08010KT 5SM -SHSN BR BKN025
     FM280400 VRB06KT P6SM VCSH SCT025 BKN040
     FM280600 VRB04KT P6SM VCSH FEW020 BKN080
     FM282000 12010KT 3SM -SN BR SCT020 OVC040=



000
FTUS45 KPUB 280200 AAA
TAFPUB
TAF AMD
KPUB 280200Z 2802/2824 08010KT 5SM -SHSN BR BKN025
     FM280400 VRB06KT P6SM VCSH SCT025 BKN040
     FM280600 VRB04KT P6SM VCSH FEW020 BKN080
     FM282000 12010KT 3SM -SN BR SCT020 OVC040=



000
FTUS45 KPUB 280200 AAA
TAFPUB
TAF AMD
KPUB 280200Z 2802/2824 08010KT 5SM -SHSN BR BKN025
     FM280400 VRB06KT P6SM VCSH SCT025 BKN040
     FM280600 VRB04KT P6SM VCSH FEW020 BKN080
     FM282000 12010KT 3SM -SN BR SCT020 OVC040=



000
FTUS45 KPUB 280200 AAA
TAFPUB
TAF AMD
KPUB 280200Z 2802/2824 08010KT 5SM -SHSN BR BKN025
     FM280400 VRB06KT P6SM VCSH SCT025 BKN040
     FM280600 VRB04KT P6SM VCSH FEW020 BKN080
     FM282000 12010KT 3SM -SN BR SCT020 OVC040=



000
FTUS45 KPUB 272324
TAFALS
TAF
KALS 272324Z 2800/2824 21012KT P6SM BKN070
     FM280200 17008KT P6SM VCSH SCT020 OVC040
     FM280600 18006KT 3SM -SN BR SCT010 OVC025
     FM281500 18007KT 6SM BR VCSH SCT020 BKN030
     FM282100 20016KT 1SM -SN BR BKN010 OVC020=



000
FTUS45 KPUB 272324
TAFCOS
TAF
KCOS 272324Z 2800/2824 14010KT 1SM -SN BR SCT009 BKN012
     FM280200 12006KT 4SM -SN BR BKN020 OVC025
     FM280800 04006KT P6SM VCSH SCT020 BKN120
     FM281700 13008KT 4SM -SN BR BKN020 OVC040
     FM282200 17013KT 1SM -SN BR BKN010 OVC025=



000
FTUS45 KPUB 272324
TAFPUB
TAF
KPUB 272324Z 2800/2824 08006KT P6SM VCSH SCT020
      TEMPO 2800/2802 4SM -SN BR BKN010 OVC025
     FM280600 VRB04KT P6SM VCSH FEW020 BKN080
     FM282000 12010KT 3SM -SN BR SCT020 OVC040=



000
FTUS45 KPUB 272324
TAFCOS
TAF
KCOS 272324Z 2800/2824 14010KT 1SM -SN BR SCT009 BKN012
     FM280200 12006KT 4SM -SN BR BKN020 OVC025
     FM280800 04006KT P6SM VCSH SCT020 BKN120
     FM281700 13008KT 4SM -SN BR BKN020 OVC040
     FM282200 17013KT 1SM -SN BR BKN010 OVC025=



000
FTUS45 KPUB 272324
TAFALS
TAF
KALS 272324Z 2800/2824 21012KT P6SM BKN070
     FM280200 17008KT P6SM VCSH SCT020 OVC040
     FM280600 18006KT 3SM -SN BR SCT010 OVC025
     FM281500 18007KT 6SM BR VCSH SCT020 BKN030
     FM282100 20016KT 1SM -SN BR BKN010 OVC020=



000
FTUS45 KPUB 272324
TAFPUB
TAF
KPUB 272324Z 2800/2824 08006KT P6SM VCSH SCT020
      TEMPO 2800/2802 4SM -SN BR BKN010 OVC025
     FM280600 VRB04KT P6SM VCSH FEW020 BKN080
     FM282000 12010KT 3SM -SN BR SCT020 OVC040=



000
FTUS45 KPUB 271720
TAFCOS
TAF
KCOS 271720Z 2718/2818 16009KT 1 1/2SM -SN BR OVC010
     FM280100 12006KT 3SM -SN BR SCT010 BKN020
     FM281000 04006KT P6SM VCSH SCT020 BKN120=



000
FTUS45 KPUB 271720
TAFCOS
TAF
KCOS 271720Z 2718/2818 16009KT 1 1/2SM -SN BR OVC010
     FM280100 12006KT 3SM -SN BR SCT010 BKN020
     FM281000 04006KT P6SM VCSH SCT020 BKN120=



000
FTUS45 KPUB 271720
TAFALS
TAF
KALS 271720Z 2718/2818 20006KT P6SM VCSH SCT020 BKN080
     FM272100 20010KT P6SM FEW020 BKN150
     FM280200 16008KT P6SM VCSH SCT020 OVC040
     FM280700 18006KT 3SM -SN BR SCT010 OVC025=



000
FTUS45 KPUB 271720
TAFALS
TAF
KALS 271720Z 2718/2818 20006KT P6SM VCSH SCT020 BKN080
     FM272100 20010KT P6SM FEW020 BKN150
     FM280200 16008KT P6SM VCSH SCT020 OVC040
     FM280700 18006KT 3SM -SN BR SCT010 OVC025=



000
FTUS45 KPUB 271720
TAFPUB
TAF
KPUB 271720Z 2718/2818 10008KT 3SM -SN BR OVC015
     FM280100 08006KT 4SM -SN BR SCT020 BKN040
     FM280900 VRB04KT P6SM VCSH FEW020 BKN080=



000
FTUS45 KPUB 271720
TAFPUB
TAF
KPUB 271720Z 2718/2818 10008KT 3SM -SN BR OVC015
     FM280100 08006KT 4SM -SN BR SCT020 BKN040
     FM280900 VRB04KT P6SM VCSH FEW020 BKN080=



000
FTUS45 KPUB 271504 AAB
TAFALS
TAF AMD
KALS 271504Z 2715/2812 08009KT P6SM SCT015 OVC030
      TEMPO 2715/2719 2SM -SN BR SCT010 BKN015
     FM271900 20011KT 6SM -SHSN SCT020 BKN035
     FM280200 17008KT P6SM VCSH SCT020 BKN040=



000
FTUS45 KPUB 271502 AAA
TAFCOS
TAF AMD
KCOS 271502Z 2715/2812 14009KT 3SM -SHSN BR FEW007 OVC015
      TEMPO 2715/2719 1SM -SN BR OVC010
     FM271900 17014KT 6SM BR SCT007 BKN015
     FM272300 13007KT P6SM VCSH SCT010 BKN020=



000
FTUS45 KPUB 271502 AAA
TAFCOS
TAF AMD
KCOS 271502Z 2715/2812 14009KT 3SM -SHSN BR FEW007 OVC015
      TEMPO 2715/2719 1SM -SN BR OVC010
     FM271900 17014KT 6SM BR SCT007 BKN015
     FM272300 13007KT P6SM VCSH SCT010 BKN020=



000
FTUS45 KPUB 271455 AAA
TAFALS
TAF AMD
KALS 271455Z 2715/2812 19010KT P6SM SCT015 BKN020
      TEMPO 2715/2719 2SM -SN BR SCT010 BKN015
     FM271900 20011KT 6SM -SHSN SCT020 BKN035
     FM280200 17008KT P6SM VCSH SCT020 BKN040=



000
FTUS45 KPUB 271455 AAA
TAFALS
TAF AMD
KALS 271455Z 2715/2812 19010KT P6SM SCT015 BKN020
      TEMPO 2715/2719 2SM -SN BR SCT010 BKN015
     FM271900 20011KT 6SM -SHSN SCT020 BKN035
     FM280200 17008KT P6SM VCSH SCT020 BKN040=



000
FTUS45 KPUB 271455 AAA
TAFALS
TAF AMD
KALS 271455Z 2715/2812 19010KT P6SM SCT015 BKN020
      TEMPO 2715/2719 2SM -SN BR SCT010 BKN015
     FM271900 20011KT 6SM -SHSN SCT020 BKN035
     FM280200 17008KT P6SM VCSH SCT020 BKN040=



000
FTUS45 KPUB 271455 AAA
TAFALS
TAF AMD
KALS 271455Z 2715/2812 19010KT P6SM SCT015 BKN020
      TEMPO 2715/2719 2SM -SN BR SCT010 BKN015
     FM271900 20011KT 6SM -SHSN SCT020 BKN035
     FM280200 17008KT P6SM VCSH SCT020 BKN040=



000
FTUS45 KPUB 271136
TAFALS
TAF
KALS 271136Z 2712/2812 19010KT 2SM -SN BR SCT010 BKN015
     FM271800 20011KT 6SM -SHSN SCT020 BKN035
     FM280200 17008KT P6SM VCSH SCT020 BKN040=



000
FTUS45 KPUB 271136
TAFPUB
TAF
KPUB 271136Z 2712/2812 08008KT 4SM -SN BR OVC020
      TEMPO 2712/2716 1SM -SN BR OVC010
     FM271900 11010KT P6SM VCSH BKN030
     FM272300 11007KT P6SM SCT020 BKN040=



000
FTUS45 KPUB 271136
TAFCOS
TAF
KCOS 271136Z 2712/2812 15010KT 3SM -SHSN BR FEW007 OVC015
     FM271800 17014KT 6SM BR SCT007 BKN015
     FM272300 13007KT P6SM VCSH SCT010 BKN020=



000
FTUS45 KPUB 271136
TAFALS
TAF
KALS 271136Z 2712/2812 19010KT 2SM -SN BR SCT010 BKN015
     FM271800 20011KT 6SM -SHSN SCT020 BKN035
     FM280200 17008KT P6SM VCSH SCT020 BKN040=



000
FTUS45 KPUB 271136
TAFPUB
TAF
KPUB 271136Z 2712/2812 08008KT 4SM -SN BR OVC020
      TEMPO 2712/2716 1SM -SN BR OVC010
     FM271900 11010KT P6SM VCSH BKN030
     FM272300 11007KT P6SM SCT020 BKN040=



000
FTUS45 KPUB 271136
TAFCOS
TAF
KCOS 271136Z 2712/2812 15010KT 3SM -SHSN BR FEW007 OVC015
     FM271800 17014KT 6SM BR SCT007 BKN015
     FM272300 13007KT P6SM VCSH SCT010 BKN020=



000
FTUS45 KPUB 270525
TAFCOS
TAF
KCOS 270525Z 2706/2806 15012KT 3/4SM -SN BR SCT006 OVC012
     FM270900 15010KT 2SM -SN BR SCT007 OVC010
     FM271200 16012KT 5SM -SHSN BR OVC007
     FM271800 17014KT 6SM BR SCT007 BKN015
     FM272300 13007KT P6SM VCSH SCT010 BKN020=



000
FTUS45 KPUB 270525
TAFALS
TAF
KALS 270525Z 2706/2806 17007KT P6SM VCSH BKN015
      TEMPO 2706/2710 2SM -SN OVC012
     FM271200 18007KT 3SM -SN BR SCT010 OVC020
     FM271800 21010KT 6SM -SHSN SCT020 BKN035
     FM280200 17008KT P6SM VCSH SCT020 BKN040=



000
FTUS45 KPUB 270525
TAFPUB
TAF
KPUB 270525Z 2706/2806 08008KT 1SM -SN BR BKN010 OVC015
     FM271000 08008KT 4SM -SN BR OVC020
     FM271900 11010KT P6SM VCSH BKN030
     FM272300 11007KT P6SM SCT020 BKN040=



000
FTUS45 KPUB 270525
TAFALS
TAF
KALS 270525Z 2706/2806 17007KT P6SM VCSH BKN015
      TEMPO 2706/2710 2SM -SN OVC012
     FM271200 18007KT 3SM -SN BR SCT010 OVC020
     FM271800 21010KT 6SM -SHSN SCT020 BKN035
     FM280200 17008KT P6SM VCSH SCT020 BKN040=



000
FTUS45 KPUB 270436 AAB
TAFALS
TAF AMD
KALS 270436Z 2705/2724 30007KT P6SM VCSH BKN015
     FM270600 19007KT 1SM -SN BR OVC010
     FM271400 20007KT 3SM -SN BR SCT010 OVC030
     FM271800 21010KT 6SM -SHSN SCT020 BKN035=



000
FTUS45 KPUB 270150 AAB
TAFPUB
TAF AMD
KPUB 270150Z 2702/2724 19012KT 2SM -SN BR BKN015 OVC020
     FM270300 09012KT 1SM -SN BR BKN010 OVC015
     FM270600 06008KT 3SM -SN BR BKN010 OVC025
     FM271000 08008KT 5SM -SN BR BKN025 OVC040
     FM271900 11010KT 6SM -SHSN BR BKN040=



000
FTUS45 KPUB 270150 AAB
TAFPUB
TAF AMD
KPUB 270150Z 2702/2724 19012KT 2SM -SN BR BKN015 OVC020
     FM270300 09012KT 1SM -SN BR BKN010 OVC015
     FM270600 06008KT 3SM -SN BR BKN010 OVC025
     FM271000 08008KT 5SM -SN BR BKN025 OVC040
     FM271900 11010KT 6SM -SHSN BR BKN040=



000
FTUS45 KPUB 270149 AAA
TAFCOS
TAF AMD
KCOS 270149Z 2702/2724 15012KT 3/4SM -SN BR SCT009 OVC012
     FM270500 14010KT 1SM -SN BR OVC012
     FM270900 15010KT 2SM -SN BR SCT007 OVC010
     FM271200 16012KT 5SM -SHSN BR OVC007
     FM272000 17014KT 6SM BR SCT007 BKN015=



000
FTUS45 KPUB 270149 AAA
TAFCOS
TAF AMD
KCOS 270149Z 2702/2724 15012KT 3/4SM -SN BR SCT009 OVC012
     FM270500 14010KT 1SM -SN BR OVC012
     FM270900 15010KT 2SM -SN BR SCT007 OVC010
     FM271200 16012KT 5SM -SHSN BR OVC007
     FM272000 17014KT 6SM BR SCT007 BKN015=



000
FTUS45 KPUB 270144 AAA
TAFALS
TAF AMD
KALS 270144Z 2702/2724 30007KT P6SM VCSH SCT040 BKN070
     FM270400 16008KT 4SM -SN BR BKN020 OVC030
     FM270600 19007KT 1SM -SN BR OVC010
     FM271400 20007KT 3SM -SN BR SCT010 OVC030
     FM271800 21010KT 6SM -SHSN SCT020 BKN035=



000
FTUS45 KPUB 270144 AAA
TAFALS
TAF AMD
KALS 270144Z 2702/2724 30007KT P6SM VCSH SCT040 BKN070
     FM270400 16008KT 4SM -SN BR BKN020 OVC030
     FM270600 19007KT 1SM -SN BR OVC010
     FM271400 20007KT 3SM -SN BR SCT010 OVC030
     FM271800 21010KT 6SM -SHSN SCT020 BKN035=



000
FTUS45 KPUB 262320
TAFPUB
TAF
KPUB 262320Z 2700/2724 12012KT 2SM -SN BR BKN015 OVC020
     FM270100 09012KT 1SM -SN BR BKN010 OVC015
     FM270600 06008KT 3SM -SN BR BKN010 OVC025
     FM271000 08008KT 5SM -SN BR BKN025 OVC040
     FM271900 11010KT 6SM -SHSN BR BKN040=



000
FTUS45 KPUB 262320
TAFCOS
TAF
KCOS 262320Z 2700/2724 15015KT 1SM -SN BR SCT009 OVC015
     FM270100 12012KT 1/2SM -SN FZFG BKN005 OVC010
     FM270500 14010KT 2SM -SN BR SCT010 BKN020
     FM270900 15010KT 4SM -SN BR SCT020 BKN040
     FM271700 16012KT 6SM -SHSN BR SCT020 BKN040=



000
FTUS45 KPUB 262320
TAFCOS
TAF
KCOS 262320Z 2700/2724 15015KT 1SM -SN BR SCT009 OVC015
     FM270100 12012KT 1/2SM -SN FZFG BKN005 OVC010
     FM270500 14010KT 2SM -SN BR SCT010 BKN020
     FM270900 15010KT 4SM -SN BR SCT020 BKN040
     FM271700 16012KT 6SM -SHSN BR SCT020 BKN040=



000
FTUS45 KPUB 262320
TAFALS
TAF
KALS 262320Z 2700/2724 17007KT P6SM VCSH SCT015 BKN040
     FM270100 14008KT 3SM -SN BR BKN010 OVC030
     FM270600 19007KT 1SM -SN BR OVC010
     FM271500 20007KT 3SM -SN BR SCT010 OVC030
     FM271800 21010KT 6SM -SHSN SCT020 BKN035=



000
FTUS45 KPUB 262320
TAFALS
TAF
KALS 262320Z 2700/2724 17007KT P6SM VCSH SCT015 BKN040
     FM270100 14008KT 3SM -SN BR BKN010 OVC030
     FM270600 19007KT 1SM -SN BR OVC010
     FM271500 20007KT 3SM -SN BR SCT010 OVC030
     FM271800 21010KT 6SM -SHSN SCT020 BKN035=



000
FTUS45 KPUB 262320
TAFCOS
TAF
KCOS 262320Z 2700/2724 15015KT 1SM -SN BR SCT009 OVC015
     FM270100 12012KT 1/2SM -SN FZFG BKN005 OVC010
     FM270500 14010KT 2SM -SN BR SCT010 BKN020
     FM270900 15010KT 4SM -SN BR SCT020 BKN040
     FM271700 16012KT 6SM -SHSN BR SCT020 BKN040=



000
FTUS45 KPUB 262320
TAFALS
TAF
KALS 262320Z 2700/2724 17007KT P6SM VCSH SCT015 BKN040
     FM270100 14008KT 3SM -SN BR BKN010 OVC030
     FM270600 19007KT 1SM -SN BR OVC010
     FM271500 20007KT 3SM -SN BR SCT010 OVC030
     FM271800 21010KT 6SM -SHSN SCT020 BKN035=



000
FTUS45 KPUB 262320
TAFPUB
TAF
KPUB 262320Z 2700/2724 12012KT 2SM -SN BR BKN015 OVC020
     FM270100 09012KT 1SM -SN BR BKN010 OVC015
     FM270600 06008KT 3SM -SN BR BKN010 OVC025
     FM271000 08008KT 5SM -SN BR BKN025 OVC040
     FM271900 11010KT 6SM -SHSN BR BKN040=



000
FTUS45 KPUB 262320
TAFPUB
TAF
KPUB 262320Z 2700/2724 12012KT 2SM -SN BR BKN015 OVC020
     FM270100 09012KT 1SM -SN BR BKN010 OVC015
     FM270600 06008KT 3SM -SN BR BKN010 OVC025
     FM271000 08008KT 5SM -SN BR BKN025 OVC040
     FM271900 11010KT 6SM -SHSN BR BKN040=



000
FTUS45 KPUB 262320
TAFCOS
TAF
KCOS 262320Z 2700/2724 15015KT 1SM -SN BR SCT009 OVC015
     FM270100 12012KT 1/2SM -SN FZFG BKN005 OVC010
     FM270500 14010KT 2SM -SN BR SCT010 BKN020
     FM270900 15010KT 4SM -SN BR SCT020 BKN040
     FM271700 16012KT 6SM -SHSN BR SCT020 BKN040=



000
FTUS45 KPUB 262320
TAFALS
TAF
KALS 262320Z 2700/2724 17007KT P6SM VCSH SCT015 BKN040
     FM270100 14008KT 3SM -SN BR BKN010 OVC030
     FM270600 19007KT 1SM -SN BR OVC010
     FM271500 20007KT 3SM -SN BR SCT010 OVC030
     FM271800 21010KT 6SM -SHSN SCT020 BKN035=



000
FTUS45 KPUB 262320
TAFPUB
TAF
KPUB 262320Z 2700/2724 12012KT 2SM -SN BR BKN015 OVC020
     FM270100 09012KT 1SM -SN BR BKN010 OVC015
     FM270600 06008KT 3SM -SN BR BKN010 OVC025
     FM271000 08008KT 5SM -SN BR BKN025 OVC040
     FM271900 11010KT 6SM -SHSN BR BKN040=



000
FTUS45 KPUB 261720
TAFALS
TAF
KALS 261720Z 2618/2718 VRB04KT P6SM FEW008 SCT050
     FM262100 20010KT P6SM VCSH SCT010 BKN040
     FM270000 13008KT 3SM -SN BR BKN010 OVC030
     FM270700 19007KT 1SM -SN BR OVC010
     FM271700 21006KT 3SM -SN BR SCT010 OVC030=



000
FTUS45 KPUB 261720
TAFPUB
TAF
KPUB 261720Z 2618/2718 14009KT 4SM -SN BR BKN013 OVC030
     FM270100 09012KT 1SM -SN BR BKN010 OVC025
     FM270600 06008KT 3SM -SN BR BKN010 OVC025=



000
FTUS45 KPUB 261720
TAFCOS
TAF
KCOS 261720Z 2618/2718 15012KT 1SM -SN BR BKN007 OVC018
     FM262300 15014G25KT 1SM -SN BR OVC010
     FM270100 12012KT 1/2SM -SN FZFG BKN005 OVC010
     FM270700 15010KT 2SM -SN BR SCT010 BKN025=



000
FTUS45 KPUB 261720
TAFALS
TAF
KALS 261720Z 2618/2718 VRB04KT P6SM FEW008 SCT050
     FM262100 20010KT P6SM VCSH SCT010 BKN040
     FM270000 13008KT 3SM -SN BR BKN010 OVC030
     FM270700 19007KT 1SM -SN BR OVC010
     FM271700 21006KT 3SM -SN BR SCT010 OVC030=



000
FTUS45 KPUB 261720
TAFALS
TAF
KALS 261720Z 2618/2718 VRB04KT P6SM FEW008 SCT050
     FM262100 20010KT P6SM VCSH SCT010 BKN040
     FM270000 13008KT 3SM -SN BR BKN010 OVC030
     FM270700 19007KT 1SM -SN BR OVC010
     FM271700 21006KT 3SM -SN BR SCT010 OVC030=



000
FTUS45 KPUB 261720
TAFPUB
TAF
KPUB 261720Z 2618/2718 14009KT 4SM -SN BR BKN013 OVC030
     FM270100 09012KT 1SM -SN BR BKN010 OVC025
     FM270600 06008KT 3SM -SN BR BKN010 OVC025=



000
FTUS45 KPUB 261720
TAFPUB
TAF
KPUB 261720Z 2618/2718 14009KT 4SM -SN BR BKN013 OVC030
     FM270100 09012KT 1SM -SN BR BKN010 OVC025
     FM270600 06008KT 3SM -SN BR BKN010 OVC025=



000
FTUS45 KPUB 261720
TAFCOS
TAF
KCOS 261720Z 2618/2718 15012KT 1SM -SN BR BKN007 OVC018
     FM262300 15014G25KT 1SM -SN BR OVC010
     FM270100 12012KT 1/2SM -SN FZFG BKN005 OVC010
     FM270700 15010KT 2SM -SN BR SCT010 BKN025=



000
FTUS45 KPUB 261720
TAFCOS
TAF
KCOS 261720Z 2618/2718 15012KT 1SM -SN BR BKN007 OVC018
     FM262300 15014G25KT 1SM -SN BR OVC010
     FM270100 12012KT 1/2SM -SN FZFG BKN005 OVC010
     FM270700 15010KT 2SM -SN BR SCT010 BKN025=



000
FTUS45 KPUB 261720
TAFPUB
TAF
KPUB 261720Z 2618/2718 14009KT 4SM -SN BR BKN013 OVC030
     FM270100 09012KT 1SM -SN BR BKN010 OVC025
     FM270600 06008KT 3SM -SN BR BKN010 OVC025=



000
FTUS45 KPUB 261720
TAFCOS
TAF
KCOS 261720Z 2618/2718 15012KT 1SM -SN BR BKN007 OVC018
     FM262300 15014G25KT 1SM -SN BR OVC010
     FM270100 12012KT 1/2SM -SN FZFG BKN005 OVC010
     FM270700 15010KT 2SM -SN BR SCT010 BKN025=



000
FTUS45 KPUB 261602 AAC
TAFCOS
TAF AMD
KCOS 261602Z 2616/2712 15012KT 1SM -SN BR BKN006 OVC010
     FM262200 15014KT 1 1/2SM -SN BR OVC010=



000
FTUS45 KPUB 261602 AAC
TAFCOS
TAF AMD
KCOS 261602Z 2616/2712 15012KT 1SM -SN BR BKN006 OVC010
     FM262200 15014KT 1 1/2SM -SN BR OVC010=



000
FTUS45 KPUB 261602 AAC
TAFCOS
TAF AMD
KCOS 261602Z 2616/2712 15012KT 1SM -SN BR BKN006 OVC010
     FM262200 15014KT 1 1/2SM -SN BR OVC010=



000
FTUS45 KPUB 261602 AAC
TAFCOS
TAF AMD
KCOS 261602Z 2616/2712 15012KT 1SM -SN BR BKN006 OVC010
     FM262200 15014KT 1 1/2SM -SN BR OVC010=



    US Dept of Commerce
    National Oceanic and Atmospheric Administration
    National Weather Service
    1325 East West Highway
    Silver Spring, MD 20910
    Page Author: NWS Internet Services Team
Disclaimer
Information Quality
Credits
Glossary
Privacy Policy
Freedom of Information Act (FOIA)
About Us
Career Opportunities